CheckWX is a tool to help pilots better visualize weather data.  It is not intended as a substitute for an official pre-flight weather briefing.

00:56:07 UTC

CYFR METAR
Fort Resolution Airport
Fort Resolution, Canada
Current

3 hours ago

CYFR 262200Z 34012G19KT 15SM BKN045 M01/M05 A2995 RMK SC5 /0/26/ SNW CVR/MEDIUM PACK LAST STFD OBS/NEXT271400Z SLP156
Observed
Mar-26 @ 22:00 UTC
Wind
  • 340° at 12 KTS
  • Gusting to 19 KTS
Visibility
15 SM
Flight Rules
VFR
Cloud Levels
  • Broken at 4,500' AGL
Temperature
-1°C / 30°F
Dewpoint
-5°C / 23°F
Humidity
75%
Altimeter
29.95" Hg
Pressure
1015.6 hPa
Previous

4 hours ago

CYFR 262100Z 32012G18KT 15SM BKN042 M02/M05 A2994 RMK SC7 SLP151
Observed
Mar-26 @ 21:00 UTC
Wind
  • 320° at 12 KTS
  • Gusting to 18 KTS
Visibility
15 SM
Flight Rules
VFR
Cloud Levels
  • Broken at 4,200' AGL
Temperature
-2°C / 28°F
Dewpoint
-5°C / 23°F
Humidity
80%
Altimeter
29.94" Hg
Pressure
1015.1 hPa
Previous

5 hours ago

CYFR 262000Z 32014KT 15SM FEW120 FEW270 M01/M05 A2992 RMK AC1CS1 AC TR SLP145
Observed
Mar-26 @ 20:00 UTC
Wind
  • 320° at 14 KTS
Visibility
15 SM
Flight Rules
VFR
Cloud Levels
  • Few at 12,000' AGL
  • Few at 27,000' AGL
Temperature
-1°C / 30°F
Dewpoint
-5°C / 23°F
Humidity
75%
Altimeter
29.92" Hg
Pressure
1014.5 hPa